Time;durP1;ratioP1;P1;durP2;ratioP2;P2;SDS_P1;SDS_P2;PMS_P1;PMS_P2;Temp;Humidity;BMP_temperature;BMP_pressure;BME280_temperature;BME280_humidity;BME280_pressure;Samples;Min_cycle;Max_cycle;Signal;HPM_P1;HPM_P2
2021/03/25 00:01:08;;;;;;;70.90;28.37;;;;;;;;;;5073273;28;20476;-80
2021/03/25 00:03:36;;;;;;;67.20;28.33;;;;;;;;;;5073160;28;20028;-80
2021/03/25 00:06:01;;;;;;;63.73;28.83;;;;;;;;;;5074469;28;20032;-80
2021/03/25 00:08:26;;;;;;;65.93;27.47;;;;;;;;;;5074032;28;20538;-80
2021/03/25 00:10:52;;;;;;;71.40;28.53;;;;;;;;;;5072948;28;20021;-80
2021/03/25 00:13:18;;;;;;;72.00;26.83;;;;;;;;;;5071666;28;20025;-80
2021/03/25 00:15:43;;;;;;;64.03;28.03;;;;;;;;;;5074316;28;20070;-80
2021/03/25 00:18:09;;;;;;;67.43;28.70;;;;;;;;;;5072457;28;20478;-80
2021/03/25 00:20:34;;;;;;;64.30;28.87;;;;;;;;;;5072571;28;20021;-80
2021/03/25 00:23:00;;;;;;;68.30;29.60;;;;;;;;;;5073862;28;20016;-80
2021/03/25 00:25:27;;;;;;;58.77;26.20;;;;;;;;;;5072527;28;20020;-80
2021/03/25 00:27:52;;;;;;;64.50;28.10;;;;;;;;;;5074091;28;20020;-80
2021/03/25 00:30:21;;;;;;;64.37;27.30;;;;;;;;;;5071909;28;20024;-80
2021/03/25 00:32:46;;;;;;;67.37;28.23;;;;;;;;;;5063919;28;20027;-80
2021/03/25 00:35:12;;;;;;;65.50;27.63;;;;;;;;;;5072440;28;20021;-80
2021/03/25 00:37:38;;;;;;;69.37;28.83;;;;;;;;;;5073801;28;20581;-80
2021/03/25 00:40:04;;;;;;;71.50;28.07;;;;;;;;;;5073770;28;20021;-80
2021/03/25 00:42:29;;;;;;;66.73;29.13;;;;;;;;;;5073858;28;20023;-80
2021/03/25 00:44:54;;;;;;;64.53;28.10;;;;;;;;;;5072393;28;20455;-80
2021/03/25 00:47:19;;;;;;;66.83;28.73;;;;;;;;;;5073461;28;20032;-80
2021/03/25 00:49:44;;;;;;;71.23;28.27;;;;;;;;;;5072130;28;20422;-80
2021/03/25 00:52:10;;;;;;;75.90;29.47;;;;;;;;;;5073571;28;20048;-80
2021/03/25 00:54:35;;;;;;;63.73;28.33;;;;;;;;;;5072007;28;20012;-80
2021/03/25 00:57:00;;;;;;;68.90;30.57;;;;;;;;;;5072188;28;20055;-80
2021/03/25 00:59:25;;;;;;;64.60;29.17;;;;;;;;;;5071774;28;20490;-80
2021/03/25 01:01:50;;;;;;;73.50;30.00;;;;;;;;;;5073365;28;20040;-80
2021/03/25 01:04:16;;;;;;;67.97;28.53;;;;;;;;;;5073135;28;20016;-80
2021/03/25 01:06:41;;;;;;;66.77;28.77;;;;;;;;;;5072845;28;20455;-80
2021/03/25 01:09:11;;;;;;;70.63;29.30;;;;;;;;;;5071868;28;20017;-80
2021/03/25 01:11:36;;;;;;;71.47;30.63;;;;;;;;;;5071500;28;20104;-80
2021/03/25 01:14:05;;;;;;;66.50;28.97;;;;;;;;;;5071908;28;20249;-80
2021/03/25 01:16:31;;;;;;;72.40;29.67;;;;;;;;;;5073096;28;20352;-80
2021/03/25 01:18:58;;;;;;;65.03;28.33;;;;;;;;;;5071505;28;20044;-80
2021/03/25 01:21:24;;;;;;;62.77;27.37;;;;;;;;;;5073094;28;20125;-80
2021/03/25 01:23:49;;;;;;;65.50;29.17;;;;;;;;;;5071360;28;20036;-80
2021/03/25 01:26:14;;;;;;;69.27;28.80;;;;;;;;;;5071681;28;20025;-80
2021/03/25 01:28:40;;;;;;;71.87;29.67;;;;;;;;;;5073348;28;20029;-80
2021/03/25 01:31:05;;;;;;;82.10;30.90;;;;;;;;;;5071685;28;20440;-80
2021/03/25 01:33:31;;;;;;;71.70;30.27;;;;;;;;;;5072667;28;20020;-80
2021/03/25 01:35:56;;;;;;;70.03;29.40;;;;;;;;;;5072940;28;20048;-80
2021/03/25 01:38:22;;;;;;;69.10;28.93;;;;;;;;;;5072856;28;20025;-80
2021/03/25 01:40:49;;;;;;;74.07;29.17;;;;;;;;;;5071334;28;20016;-80
2021/03/25 01:43:17;;;;;;;73.17;29.97;;;;;;;;;;5071499;28;20060;-80
2021/03/25 01:45:54;;;;;;;70.00;29.00;;;;;;;;;;5072587;28;20021;-80
2021/03/25 01:48:21;;;;;;;71.47;29.30;;;;;;;;;;5059558;28;20531;-80
2021/03/25 01:50:46;;;;;;;67.23;29.50;;;;;;;;;;5071474;28;20020;-80
2021/03/25 01:53:17;;;;;;;73.97;30.47;;;;;;;;;;5072634;28;20532;-80
2021/03/25 01:55:42;;;;;;;64.37;28.80;;;;;;;;;;5071453;28;20074;-80
2021/03/25 01:58:31;;;;;;;74.20;30.57;;;;;;;;;;5071254;28;20024;-80
2021/03/25 02:01:05;;;;;;;72.93;29.93;;;;;;;;;;5072676;28;20017;-80
2021/03/25 02:03:48;;;;;;;78.87;30.60;;;;;;;;;;5072265;28;20170;-80
2021/03/25 02:06:37;;;;;;;75.27;31.07;;;;;;;;;;5072450;28;20047;-80
2021/03/25 02:09:19;;;;;;;75.23;30.97;;;;;;;;;;5072988;28;20349;-80
2021/03/25 02:11:47;;;;;;;69.35;29.65;;;;;;;;;;5072347;28;20020;-80
2021/03/25 02:14:16;;;;;;;68.87;29.07;;;;;;;;;;5071358;28;20421;-80
2021/03/25 02:16:50;;;;;;;69.97;30.10;;;;;;;;;;5072302;28;20012;-80
2021/03/25 02:19:26;;;;;;;76.33;30.13;;;;;;;;;;5071017;28;20111;-80
2021/03/25 02:21:51;;;;;;;76.90;31.50;;;;;;;;;;5072466;28;20021;-80
2021/03/25 02:24:35;;;;;;;70.13;29.73;;;;;;;;;;5072450;28;20036;-80
2021/03/25 02:27:03;;;;;;;73.57;31.40;;;;;;;;;;5070854;28;20527;-80
2021/03/25 02:29:45;;;;;;;71.47;29.23;;;;;;;;;;5072417;28;20430;-80
2021/03/25 02:32:13;;;;;;;61.55;26.90;;;;;;;;;;5071036;28;20054;-80
2021/03/25 02:34:41;;;;;;;63.67;27.63;;;;;;;;;;5072162;28;20056;-80
2021/03/25 02:37:11;;;;;;;70.43;31.53;;;;;;;;;;5066499;28;20028;-80
2021/03/25 02:39:40;;;;;;;70.10;30.23;;;;;;;;;;5074712;28;20052;-80
2021/03/25 02:42:07;;;;;;;66.03;29.73;;;;;;;;;;5075860;28;20036;-80
2021/03/25 02:44:36;;;;;;;74.20;31.40;;;;;;;;;;5074615;28;20474;-80
2021/03/25 02:47:04;;;;;;;74.53;32.17;;;;;;;;;;5074648;28;20069;-80
2021/03/25 02:49:31;;;;;;;68.27;29.27;;;;;;;;;;5074589;28;20020;-80
2021/03/25 02:52:02;;;;;;;75.17;31.63;;;;;;;;;;5074741;28;20016;-80
2021/03/25 02:54:27;;;;;;;80.93;30.97;;;;;;;;;;5074302;28;20021;-80
2021/03/25 02:56:52;;;;;;;74.37;31.47;;;;;;;;;;5075523;28;20095;-80
2021/03/25 02:59:20;;;;;;;76.30;31.77;;;;;;;;;;5075993;28;20365;-80
2021/03/25 03:01:48;;;;;;;75.30;30.77;;;;;;;;;;5074247;28;20422;-80
2021/03/25 03:04:21;;;;;;;74.73;30.73;;;;;;;;;;5074452;28;20502;-80
2021/03/25 03:06:49;;;;;;;66.37;29.53;;;;;;;;;;5075487;28;20438;-80
2021/03/25 03:09:22;;;;;;;66.37;29.70;;;;;;;;;;5075754;28;20051;-80
2021/03/25 03:11:48;;;;;;;65.67;29.43;;;;;;;;;;5073741;28;20013;-80
2021/03/25 03:14:25;;;;;;;62.60;28.57;;;;;;;;;;5075706;28;20024;-80
2021/03/25 03:16:52;;;;;;;67.50;29.57;;;;;;;;;;5075587;28;20427;-80
2021/03/25 03:19:23;;;;;;;72.00;30.43;;;;;;;;;;5075480;28;20032;-80
2021/03/25 03:21:58;;;;;;;64.20;29.23;;;;;;;;;;5073933;28;20494;-80
2021/03/25 03:24:24;;;;;;;70.17;29.30;;;;;;;;;;5074053;28;20509;-80
2021/03/25 03:27:08;;;;;;;78.93;31.13;;;;;;;;;;5074876;28;20017;-80
2021/03/25 03:29:34;;;;;;;64.90;29.80;;;;;;;;;;5073944;28;20016;-80
2021/03/25 03:32:08;;;;;;;68.77;30.10;;;;;;;;;;5073810;28;20016;-80
2021/03/25 03:34:35;;;;;;;74.13;30.37;;;;;;;;;;5075273;28;20021;-80
2021/03/25 03:37:03;;;;;;;65.97;30.03;;;;;;;;;;5074920;28;20020;-80
2021/03/25 03:39:29;;;;;;;72.87;30.67;;;;;;;;;;5073702;28;20024;-80
2021/03/25 03:41:58;;;;;;;83.00;31.63;;;;;;;;;;5075111;28;20107;-80
2021/03/25 03:44:33;;;;;;;67.00;29.73;;;;;;;;;;5073552;28;20028;-80
2021/03/25 03:46:59;;;;;;;70.73;32.00;;;;;;;;;;5074820;28;20031;-80
2021/03/25 03:49:24;;;;;;;85.50;34.30;;;;;;;;;;5073493;28;20017;-80
2021/03/25 03:52:01;;;;;;;83.90;34.43;;;;;;;;;;5073452;28;20017;-80
2021/03/25 03:54:26;;;;;;;84.33;33.60;;;;;;;;;;5074619;28;20455;-80
2021/03/25 03:56:51;;;;;;;84.80;34.60;;;;;;;;;;5073293;28;20070;-80
2021/03/25 03:59:35;;;;;;;83.62;34.02;;;;;;;;;;5074562;28;20070;-80
2021/03/25 04:02:07;;;;;;;83.67;35.17;;;;;;;;;;5074696;28;20073;-80
2021/03/25 04:04:35;;;;;;;81.20;35.83;;;;;;;;;;5074590;28;20487;-80
2021/03/25 04:07:02;;;;;;;83.20;35.40;;;;;;;;;;5073160;28;20086;-80
2021/03/25 04:09:34;;;;;;;77.43;33.40;;;;;;;;;;5072965;28;20017;-80
2021/03/25 04:12:05;;;;;;;83.63;35.65;;;;;;;;;;5072989;28;20017;-80
2021/03/25 04:14:32;;;;;;;80.47;34.73;;;;;;;;;;5073606;28;20074;-80
2021/03/25 04:16:59;;;;;;;78.90;34.73;;;;;;;;;;5061251;28;20032;-80
2021/03/25 04:19:28;;;;;;;76.07;32.57;;;;;;;;;;5072971;28;20028;-80
2021/03/25 04:21:56;;;;;;;74.20;33.17;;;;;;;;;;5074154;28;20023;-80
2021/03/25 04:24:24;;;;;;;77.70;33.53;;;;;;;;;;5074193;28;20464;-80
2021/03/25 04:26:51;;;;;;;75.80;33.13;;;;;;;;;;5073627;28;20538;-80
2021/03/25 04:29:21;;;;;;;90.97;35.57;;;;;;;;;;5074051;28;20032;-80
2021/03/25 04:31:46;;;;;;;88.20;35.97;;;;;;;;;;5072629;28;20448;-80
2021/03/25 04:34:11;;;;;;;86.43;37.30;;;;;;;;;;5073961;28;20051;-80
2021/03/25 04:36:42;;;;;;;92.57;37.10;;;;;;;;;;5073727;28;20044;-80
2021/03/25 04:39:09;;;;;;;94.57;38.70;;;;;;;;;;5072527;28;20024;-80
2021/03/25 04:41:35;;;;;;;84.97;36.93;;;;;;;;;;5073608;28;20515;-80
2021/03/25 04:44:02;;;;;;;85.77;36.17;;;;;;;;;;5072035;28;20047;-80
2021/03/25 04:46:35;;;;;;;89.77;35.93;;;;;;;;;;5073697;28;20028;-80
2021/03/25 04:49:05;;;;;;;84.23;35.73;;;;;;;;;;5073463;28;20020;-80
2021/03/25 04:51:31;;;;;;;79.87;37.73;;;;;;;;;;5073516;28;20024;-80
2021/03/25 04:54:09;;;;;;;88.27;37.33;;;;;;;;;;5072054;28;20027;-80
2021/03/25 04:56:34;;;;;;;91.03;37.47;;;;;;;;;;5071742;28;20056;-80
2021/03/25 04:59:00;;;;;;;85.63;36.70;;;;;;;;;;5071526;28;20142;-80
2021/03/25 05:01:27;;;;;;;85.83;35.57;;;;;;;;;;5071830;28;20012;-80
2021/03/25 05:03:57;;;;;;;89.57;38.03;;;;;;;;;;5071917;28;20016;-80
2021/03/25 05:06:24;;;;;;;85.33;37.23;;;;;;;;;;5071621;28;20051;-80
2021/03/25 05:08:52;;;;;;;89.13;38.47;;;;;;;;;;5073166;28;20024;-80
2021/03/25 05:11:25;;;;;;;101.60;39.47;;;;;;;;;;5072988;28;20028;-80
2021/03/25 05:13:51;;;;;;;90.10;38.67;;;;;;;;;;5073109;28;20021;-80
2021/03/25 05:16:24;;;;;;;91.70;38.73;;;;;;;;;;5071447;28;20498;-80
2021/03/25 05:19:01;;;;;;;87.60;37.27;;;;;;;;;;5071613;28;20376;-80
2021/03/25 05:21:31;;;;;;;88.67;36.17;;;;;;;;;;5071562;28;20028;-80
2021/03/25 05:24:05;;;;;;;94.43;38.33;;;;;;;;;;5073229;28;20095;-80
2021/03/25 05:26:34;;;;;;;89.17;36.43;;;;;;;;;;5070844;28;20073;-80
2021/03/25 05:29:02;;;;;;;86.13;36.23;;;;;;;;;;5072885;28;20475;-79
2021/03/25 05:31:28;;;;;;;81.30;36.73;;;;;;;;;;5071183;28;20020;-80
2021/03/25 05:33:55;;;;;;;85.00;35.73;;;;;;;;;;5072882;28;20451;-80
2021/03/25 05:36:21;;;;;;;92.97;37.83;;;;;;;;;;5072641;28;20369;-80
2021/03/25 05:38:46;;;;;;;89.57;36.93;;;;;;;;;;5071297;28;20031;-80
2021/03/25 05:41:30;;;;;;;82.93;35.70;;;;;;;;;;5072707;28;20028;-80
2021/03/25 05:44:06;;;;;;;81.97;34.77;;;;;;;;;;5072340;28;20013;-80
2021/03/25 05:46:37;;;;;;;74.57;34.17;;;;;;;;;;5060063;28;20046;-80
2021/03/25 05:49:14;;;;;;;84.70;35.37;;;;;;;;;;5072483;28;20455;-80
2021/03/25 05:51:45;;;;;;;86.43;36.67;;;;;;;;;;5072786;28;20021;-80
2021/03/25 05:54:18;;;;;;;84.97;35.77;;;;;;;;;;5071141;28;20021;-80
2021/03/25 05:56:43;;;;;;;;;;;;;;;;;;5073217;28;20016;-80
2021/03/25 05:59:09;;;;;;;90.80;36.27;;;;;;;;;;5072578;28;19911;-80
2021/03/25 06:01:35;;;;;;;89.63;37.07;;;;;;;;;;5072344;28;20281;-80
2021/03/25 06:04:17;;;;;;;86.53;37.37;;;;;;;;;;5072292;28;20430;-80
2021/03/25 06:06:45;;;;;;;93.47;37.15;;;;;;;;;;5059027;28;20376;-80
2021/03/25 06:09:18;;;;;;;85.00;34.77;;;;;;;;;;5072571;28;20460;-80
2021/03/25 06:11:49;;;;;;;91.27;37.10;;;;;;;;;;5076084;28;20012;-80
2021/03/25 06:14:22;;;;;;;82.40;34.80;;;;;;;;;;5076696;28;20021;-80
2021/03/25 06:16:50;;;;;;;78.93;34.60;;;;;;;;;;5076350;28;20391;-80
2021/03/25 06:19:15;;;;;;;88.03;35.33;;;;;;;;;;5075197;28;20016;-80
2021/03/25 06:21:59;;;;;;;84.03;36.27;;;;;;;;;;5076381;28;20498;-80
2021/03/25 06:24:24;;;;;;;105.27;43.27;;;;;;;;;;5076563;28;20442;-80
2021/03/25 06:27:00;;;;;;;89.22;37.34;;;;;;;;;;5076374;28;20047;-80
2021/03/25 06:29:31;;;;;;;79.93;35.70;;;;;;;;;;5075016;28;20027;-80
2021/03/25 06:32:03;;;;;;;85.40;35.27;;;;;;;;;;5074913;28;20020;-80
2021/03/25 06:34:28;;;;;;;82.07;36.83;;;;;;;;;;5076398;28;20027;-80
2021/03/25 06:36:56;;;;;;;82.37;34.57;;;;;;;;;;5075835;28;20028;-80
2021/03/25 06:39:24;;;;;;;81.67;35.80;;;;;;;;;;5076179;28;20016;-80
2021/03/25 06:42:01;;;;;;;84.27;37.50;;;;;;;;;;5076023;28;20483;-80
2021/03/25 06:44:37;;;;;;;80.73;34.77;;;;;;;;;;5075883;28;20017;-80
2021/03/25 06:47:06;;;;;;;79.87;33.83;;;;;;;;;;5076006;28;20028;-80
2021/03/25 06:49:58;;;;;;;76.27;33.93;;;;;;;;;;5075768;28;20101;-80
2021/03/25 06:52:26;;;;;;;85.27;35.40;;;;;;;;;;5069799;28;20475;-80
2021/03/25 06:54:52;;;;;;;80.53;34.67;;;;;;;;;;5075986;28;20455;-80
2021/03/25 06:57:18;;;;;;;78.60;34.40;;;;;;;;;;5074552;28;20124;-80
2021/03/25 06:59:44;;;;;;;79.20;34.27;;;;;;;;;;5075655;28;20470;-80
2021/03/25 07:02:30;;;;;;;80.10;34.70;;;;;;;;;;5075814;28;20087;-80
2021/03/25 07:04:59;;;;;;;76.43;32.83;;;;;;;;;;5075538;28;20013;-80
2021/03/25 07:07:39;;;;;;;80.40;32.97;;;;;;;;;;5072794;28;20020;-80
2021/03/25 07:10:05;;;;;;;75.23;32.43;;;;;;;;;;5067436;28;20028;-80
2021/03/25 07:12:42;;;;;;;77.87;33.03;;;;;;;;;;5074256;28;20115;-80
2021/03/25 07:15:17;;;;;;;75.33;31.40;;;;;;;;;;5075216;28;20027;-80
2021/03/25 07:17:43;;;;;;;84.93;35.00;;;;;;;;;;5073703;28;20503;-80
2021/03/25 07:20:23;;;;;;;67.07;30.43;;;;;;;;;;5073838;28;20028;-80
2021/03/25 07:23:04;;;;;;;74.93;30.33;;;;;;;;;;5073088;28;20032;-80
2021/03/25 07:25:30;;;;;;;70.87;30.10;;;;;;;;;;5073866;28;20031;-80
2021/03/25 07:27:56;;;;;;;69.70;30.93;;;;;;;;;;5074937;28;20028;-80
2021/03/25 07:30:23;;;;;;;75.30;30.17;;;;;;;;;;5072502;28;20055;-80
2021/03/25 07:33:05;;;;;;;72.20;31.10;;;;;;;;;;5074043;28;20024;-80
2021/03/25 07:35:33;;;;;;;77.07;33.38;;;;;;;;;;5075107;28;20081;-80
2021/03/25 07:37:59;;;;;;;67.87;30.67;;;;;;;;;;5071907;28;20480;-80
2021/03/25 07:40:33;;;;;;;74.40;29.40;;;;;;;;;;5073676;28;20032;-80
2021/03/25 07:43:11;;;;;;;66.63;29.53;;;;;;;;;;5066940;28;20078;-80
2021/03/25 07:45:36;;;;;;;74.80;29.67;;;;;;;;;;5073305;28;20365;-80
2021/03/25 07:48:14;;;;;;;65.32;27.75;;;;;;;;;;5073507;28;20017;-80
2021/03/25 07:50:40;;;;;;;60.30;27.17;;;;;;;;;;5074636;28;20017;-80
2021/03/25 07:53:25;;;;;;;66.90;26.10;;;;;;;;;;5073345;28;20074;-80
2021/03/25 07:56:04;;;;;;;58.50;29.37;;;;;;;;;;5072658;28;20059;-80
2021/03/25 07:58:33;;;;;;;60.67;28.87;;;;;;;;;;5074344;28;20020;-80
2021/03/25 08:01:18;;;;;;;64.20;25.57;;;;;;;;;;5076112;28;20032;-80
2021/03/25 08:03:44;;;;;;;58.50;24.97;;;;;;;;;;5074394;28;20349;-80
2021/03/25 08:06:18;;;;;;;64.50;26.13;;;;;;;;;;5072374;28;20039;-78
2021/03/25 08:08:43;;;;;;;57.63;26.70;;;;;;;;;;5065421;28;20016;-78
2021/03/25 08:11:11;;;;;;;54.47;26.17;;;;;;;;;;5072078;28;20066;-78
2021/03/25 08:13:44;;;;;;;52.87;24.63;;;;;;;;;;5074183;28;20021;-78
2021/03/25 08:16:11;;;;;;;51.25;22.02;;;;;;;;;;5072566;28;20059;-77
2021/03/25 08:18:57;;;;;;;46.83;22.77;;;;;;;;;;5074182;28;20031;-78
2021/03/25 08:21:28;;;;;;;46.23;22.53;;;;;;;;;;5074016;28;20543;-78
2021/03/25 08:23:53;;;;;;;50.60;21.67;;;;;;;;;;5074119;28;20020;-78
2021/03/25 08:26:25;;;;;;;45.67;20.80;;;;;;;;;;5073961;28;20012;-78
2021/03/25 08:28:53;;;;;;;49.10;20.00;;;;;;;;;;5072395;28;20024;-78
2021/03/25 08:31:38;;;;;;;46.67;20.73;;;;;;;;;;5071329;28;20020;-78
2021/03/25 08:34:13;;;;;;;42.60;20.20;;;;;;;;;;5060436;28;20013;-78
2021/03/25 08:36:48;;;;;;;39.87;18.13;;;;;;;;;;5068327;28;20016;-77
2021/03/25 08:39:32;;;;;;;47.63;21.93;;;;;;;;;;5073813;28;20033;-77
2021/03/25 08:42:16;;;;;;;41.58;21.63;;;;;;;;;;5070835;28;20086;-77
2021/03/25 08:44:48;;;;;;;47.07;21.40;;;;;;;;;;5072009;28;20020;-77
2021/03/25 08:47:19;;;;;;;47.17;21.05;;;;;;;;;;5072982;28;20123;-77
2021/03/25 08:49:44;;;;;;;48.90;19.20;;;;;;;;;;5073197;28;20035;-77
2021/03/25 08:52:13;;;;;;;43.38;18.38;;;;;;;;;;5072282;28;20100;-78
2021/03/25 08:54:40;;;;;;;44.08;20.20;;;;;;;;;;5073338;28;20017;-78
2021/03/25 08:57:10;;;;;;;43.10;19.08;;;;;;;;;;5072192;28;20120;-78
2021/03/25 08:59:37;;;;;;;42.95;19.73;;;;;;;;;;5070036;28;20024;-78
2021/03/25 09:02:06;;;;;;;48.92;17.98;;;;;;;;;;5073245;28;20024;-78
2021/03/25 09:04:34;;;;;;;49.03;19.15;;;;;;;;;;5072846;28;20039;-78
2021/03/25 09:07:01;;;;;;;39.38;18.65;;;;;;;;;;5071263;28;20028;-78
2021/03/25 09:09:32;;;;;;;42.47;17.65;;;;;;;;;;5071617;28;20052;-78
2021/03/25 09:11:58;;;;;;;31.88;14.45;;;;;;;;;;5072782;28;20036;-77
2021/03/25 09:14:24;;;;;;;33.83;13.48;;;;;;;;;;5071125;28;20505;-78
2021/03/25 09:16:50;;;;;;;39.13;18.13;;;;;;;;;;5072172;28;20033;-78
2021/03/25 09:19:26;;;;;;;45.28;17.77;;;;;;;;;;5073007;28;20021;-78
2021/03/25 09:21:52;;;;;;;33.72;16.00;;;;;;;;;;5072278;28;20372;-78
2021/03/25 09:24:17;;;;;;;30.17;14.02;;;;;;;;;;5071275;28;20020;-78
2021/03/25 09:26:45;;;;;;;36.13;14.63;;;;;;;;;;5072247;28;20486;-78
2021/03/25 09:29:11;;;;;;;31.92;15.48;;;;;;;;;;5071585;28;20031;-78
2021/03/25 09:31:42;;;;;;;34.13;14.73;;;;;;;;;;5069919;28;20033;-78
2021/03/25 09:34:10;;;;;;;32.58;15.15;;;;;;;;;;5071677;28;20021;-77
2021/03/25 09:36:35;;;;;;;33.50;14.48;;;;;;;;;;5072586;28;20429;-78
2021/03/25 09:39:00;;;;;;;28.75;14.13;;;;;;;;;;5072340;28;20060;-78
2021/03/25 09:41:26;;;;;;;28.45;12.52;;;;;;;;;;5072680;28;20361;-78
2021/03/25 09:43:52;;;;;;;30.65;11.98;;;;;;;;;;5072256;28;20372;-78
2021/03/25 09:46:29;;;;;;;31.73;12.90;;;;;;;;;;5071183;28;20497;-78
2021/03/25 09:49:13;;;;;;;20.45;10.23;;;;;;;;;;5066896;28;20321;-78
2021/03/25 09:51:38;;;;;;;27.55;12.38;;;;;;;;;;5072455;28;20070;-78
2021/03/25 09:54:04;;;;;;;23.10;12.02;;;;;;;;;;5071023;28;20423;-78
2021/03/25 09:56:33;;;;;;;27.27;11.15;;;;;;;;;;5071215;28;20376;-78
2021/03/25 09:58:59;;;;;;;27.63;11.88;;;;;;;;;;5071230;28;20116;-78
2021/03/25 10:01:43;;;;;;;26.90;12.27;;;;;;;;;;5070969;28;20444;-77
2021/03/25 10:04:29;;;;;;;22.85;11.48;;;;;;;;;;5071668;28;20050;-78
2021/03/25 10:06:57;;;;;;;30.17;13.68;;;;;;;;;;5063716;28;20445;-77
2021/03/25 10:09:41;;;;;;;27.30;12.00;;;;;;;;;;5069702;28;20066;-78
2021/03/25 10:12:10;;;;;;;32.35;13.05;;;;;;;;;;5072165;28;20181;-78
2021/03/25 10:14:42;;;;;;;32.95;12.77;;;;;;;;;;5071467;28;20052;-78
2021/03/25 10:17:07;;;;;;;29.23;12.82;;;;;;;;;;5072222;28;20444;-78
2021/03/25 10:19:46;;;;;;;30.33;13.30;;;;;;;;;;5071976;28;20027;-78
2021/03/25 10:22:17;;;;;;;27.80;12.23;;;;;;;;;;5072112;28;20031;-79
2021/03/25 10:24:43;;;;;;;24.98;12.27;;;;;;;;;;5070329;28;20052;-78
2021/03/25 10:27:21;;;;;;;29.15;13.18;;;;;;;;;;5071324;28;20027;-78
2021/03/25 10:29:46;;;;;;;27.48;13.40;;;;;;;;;;5070687;28;20104;-78
2021/03/25 10:32:32;;;;;;;26.13;13.45;;;;;;;;;;5072420;28;20709;-78
2021/03/25 10:34:59;;;;;;;25.77;13.00;;;;;;;;;;5069906;28;20033;-78
2021/03/25 10:37:30;;;;;;;24.48;13.75;;;;;;;;;;5071198;28;20033;-79
2021/03/25 10:40:00;;;;;;;23.30;13.80;;;;;;;;;;5068133;28;20055;-78
2021/03/25 10:42:28;;;;;;;23.33;11.27;;;;;;;;;;5069229;28;20048;-78
2021/03/25 10:44:54;;;;;;;27.42;11.90;;;;;;;;;;5071420;28;20070;-78
2021/03/25 10:47:21;;;;;;;21.83;11.05;;;;;;;;;;5071468;28;20443;-78
2021/03/25 10:49:48;;;;;;;20.00;11.77;;;;;;;;;;5071249;28;20017;-78
2021/03/25 10:52:18;;;;;;;24.55;11.40;;;;;;;;;;5069133;28;20025;-78
2021/03/25 10:54:43;;;;;;;18.73;10.73;;;;;;;;;;5071293;28;20368;-78
2021/03/25 10:57:21;;;;;;;21.55;11.18;;;;;;;;;;5072357;28;20020;-78
2021/03/25 10:59:51;;;;;;;25.13;12.70;;;;;;;;;;5075570;28;20101;-78
2021/03/25 11:02:23;;;;;;;19.58;11.60;;;;;;;;;;5073954;28;20049;-78
2021/03/25 11:04:58;;;;;;;16.55;9.75;;;;;;;;;;5074438;28;20017;-78
2021/03/25 11:07:24;;;;;;;20.92;11.02;;;;;;;;;;5073868;28;20187;-78
2021/03/25 11:10:12;;;;;;;19.13;11.40;;;;;;;;;;5073239;28;20498;-80
2021/03/25 11:12:37;;;;;;;19.42;11.27;;;;;;;;;;5075031;28;20379;-80
2021/03/25 11:15:15;;;;;;;24.63;11.38;;;;;;;;;;5074766;28;20016;-80
2021/03/25 11:17:42;;;;;;;18.83;11.10;;;;;;;;;;5074014;28;20027;-80
2021/03/25 11:20:11;;;;;;;22.33;12.18;;;;;;;;;;5074458;28;20016;-80
2021/03/25 11:22:36;;;;;;;23.52;10.98;;;;;;;;;;5074618;28;20021;-81
2021/03/25 11:25:04;;;;;;;20.20;11.98;;;;;;;;;;5074238;28;20051;-81
2021/03/25 11:27:29;;;;;;;21.88;10.80;;;;;;;;;;5074918;28;20017;-81
2021/03/25 11:29:59;;;;;;;17.88;9.57;;;;;;;;;;5072687;28;20074;-81
2021/03/25 11:32:30;;;;;;;20.90;11.20;;;;;;;;;;5073080;28;20031;-80
2021/03/25 11:34:55;;;;;;;23.27;11.37;;;;;;;;;;5072344;28;20020;-80
2021/03/25 11:37:30;;;;;;;24.27;11.05;;;;;;;;;;5074993;28;20022;-80
2021/03/25 11:40:13;;;;;;;21.67;11.80;;;;;;;;;;5072982;28;20111;-80
2021/03/25 11:42:39;;;;;;;22.00;12.13;;;;;;;;;;5061725;28;20032;-80
2021/03/25 11:45:05;;;;;;;21.17;12.63;;;;;;;;;;5072129;28;20435;-80
2021/03/25 11:47:39;;;;;;;15.88;8.88;;;;;;;;;;5072822;28;20161;-80
2021/03/25 11:50:24;;;;;;;25.30;12.90;;;;;;;;;;5073223;28;20017;-80
2021/03/25 11:52:51;;;;;;;21.98;11.48;;;;;;;;;;5053433;28;20025;-80
2021/03/25 11:55:21;;;;;;;20.02;11.35;;;;;;;;;;5074079;28;20055;-80
2021/03/25 11:57:47;;;;;;;27.63;11.52;;;;;;;;;;5072916;28;20046;-80
2021/03/25 12:00:20;;;;;;;25.95;12.45;;;;;;;;;;5074215;28;20437;-80
2021/03/25 12:02:45;;;;;;;19.70;11.48;;;;;;;;;;5074147;28;20017;-80
2021/03/25 12:05:23;;;;;;;20.52;12.38;;;;;;;;;;5074150;28;20024;-80
2021/03/25 12:07:59;;;;;;;25.80;11.75;;;;;;;;;;5069483;28;20074;-78
2021/03/25 12:10:24;;;;;;;21.02;11.70;;;;;;;;;;5073958;28;20076;-78
2021/03/25 12:12:49;;;;;;;23.83;12.60;;;;;;;;;;5072598;28;20103;-78
2021/03/25 12:15:15;;;;;;;20.33;11.40;;;;;;;;;;5073958;28;20106;-78
2021/03/25 12:18:01;;;;;;;24.00;11.77;;;;;;;;;;5074077;28;20104;-78
2021/03/25 12:20:31;;;;;;;22.10;11.10;;;;;;;;;;5072432;28;20029;-78
2021/03/25 12:23:01;;;;;;;21.10;11.98;;;;;;;;;;5072534;28;20081;-78
2021/03/25 12:25:27;;;;;;;20.85;10.85;;;;;;;;;;5072402;28;20040;-78
2021/03/25 12:27:52;;;;;;;20.63;10.38;;;;;;;;;;5073934;28;20060;-78
2021/03/25 12:30:17;;;;;;;27.83;12.43;;;;;;;;;;5073594;28;20013;-78
2021/03/25 12:32:43;;;;;;;24.65;10.55;;;;;;;;;;5073994;28;20017;-78
2021/03/25 12:35:11;;;;;;;23.58;11.38;;;;;;;;;;5073544;28;20055;-78
2021/03/25 12:37:36;;;;;;;22.80;12.15;;;;;;;;;;5072400;28;20016;-78
2021/03/25 12:40:02;;;;;;;19.17;9.70;;;;;;;;;;5071928;28;20441;-79
2021/03/25 12:42:27;;;;;;;21.30;11.35;;;;;;;;;;5073567;28;20021;-78
2021/03/25 12:44:52;;;;;;;20.35;11.38;;;;;;;;;;5073363;28;20016;-78
2021/03/25 12:47:17;;;;;;;19.35;9.63;;;;;;;;;;5071985;28;20028;-78
2021/03/25 12:49:43;;;;;;;23.77;10.02;;;;;;;;;;5073544;28;20428;-78
2021/03/25 12:52:08;;;;;;;21.25;11.48;;;;;;;;;;5073134;28;20111;-78
2021/03/25 12:54:33;;;;;;;21.73;10.30;;;;;;;;;;5073319;28;20032;-78
2021/03/25 12:57:00;;;;;;;29.42;10.85;;;;;;;;;;5073281;28;20482;-78
2021/03/25 12:59:26;;;;;;;20.60;11.20;;;;;;;;;;5072938;28;20025;-78
2021/03/25 13:01:51;;;;;;;19.33;10.98;;;;;;;;;;5071918;28;20024;-78
2021/03/25 13:04:16;;;;;;;16.10;9.40;;;;;;;;;;5071650;28;20017;-78
2021/03/25 13:06:41;;;;;;;17.42;9.70;;;;;;;;;;5073041;28;20066;-78
2021/03/25 13:09:07;;;;;;;19.02;8.32;;;;;;;;;;5071469;28;20098;-78
2021/03/25 13:11:32;;;;;;;16.30;9.20;;;;;;;;;;5072821;28;20016;-78
2021/03/25 13:13:58;;;;;;;16.50;10.13;;;;;;;;;;5071676;28;20111;-78
2021/03/25 13:16:24;;;;;;;16.83;9.25;;;;;;;;;;5071470;28;20040;-78
2021/03/25 13:18:49;;;;;;;17.77;10.13;;;;;;;;;;5072477;28;20495;-78
2021/03/25 13:21:15;;;;;;;24.58;10.95;;;;;;;;;;5072774;28;20029;-78
2021/03/25 13:23:41;;;;;;;15.23;9.60;;;;;;;;;;5071667;28;20541;-78
2021/03/25 13:26:07;;;;;;;20.38;10.93;;;;;;;;;;5072741;28;20028;-78
2021/03/25 13:28:33;;;;;;;20.95;10.05;;;;;;;;;;5072444;28;20013;-78
2021/03/25 13:30:58;;;;;;;18.20;9.85;;;;;;;;;;5072510;28;20016;-78
2021/03/25 13:33:23;;;;;;;17.60;9.10;;;;;;;;;;5071287;28;20016;-78
2021/03/25 13:35:49;;;;;;;17.92;9.02;;;;;;;;;;5072791;28;20013;-78
2021/03/25 13:38:15;;;;;;;17.55;8.50;;;;;;;;;;5071199;28;20020;-78
2021/03/25 13:40:41;;;;;;;15.90;8.20;;;;;;;;;;5072454;28;20013;-78
2021/03/25 13:43:07;;;;;;;18.00;8.15;;;;;;;;;;5072425;28;20484;-78
2021/03/25 13:45:33;;;;;;;19.63;8.15;;;;;;;;;;5072432;28;20096;-78
2021/03/25 13:47:58;;;;;;;12.50;7.95;;;;;;;;;;5071795;28;20099;-78
2021/03/25 13:50:31;;;;;;;18.60;8.30;;;;;;;;;;5070474;28;20020;-78
2021/03/25 13:52:57;;;;;;;11.60;7.30;;;;;;;;;;5072360;28;20087;-78
2021/03/25 13:55:24;;;;;;;21.90;8.75;;;;;;;;;;5072450;28;20420;-78
2021/03/25 13:57:49;;;;;;;15.93;7.18;;;;;;;;;;5072174;28;20464;-78
2021/03/25 14:00:15;;;;;;;11.57;7.22;;;;;;;;;;5071866;28;20074;-78
2021/03/25 14:02:40;;;;;;;13.30;6.60;;;;;;;;;;5069437;28;20024;-78
2021/03/25 14:05:06;;;;;;;16.60;7.88;;;;;;;;;;5058323;28;20021;-78
2021/03/25 14:07:31;;;;;;;17.85;7.03;;;;;;;;;;5072280;28;20357;-78
2021/03/25 14:09:56;;;;;;;10.52;7.30;;;;;;;;;;5071899;28;20027;-78
2021/03/25 14:12:21;;;;;;;14.45;7.65;;;;;;;;;;5071975;28;20047;-78
2021/03/25 14:14:47;;;;;;;15.70;7.45;;;;;;;;;;5063568;28;20380;-78
2021/03/25 14:17:12;;;;;;;14.40;6.95;;;;;;;;;;5072112;28;20048;-78
2021/03/25 14:19:37;;;;;;;11.55;6.70;;;;;;;;;;5071661;28;20149;-78
2021/03/25 14:22:03;;;;;;;16.10;7.53;;;;;;;;;;5072186;28;20021;-78
2021/03/25 14:24:28;;;;;;;13.65;7.18;;;;;;;;;;5069109;28;20021;-78
2021/03/25 14:26:53;;;;;;;12.70;7.05;;;;;;;;;;5070688;28;20039;-78
2021/03/25 14:29:18;;;;;;;16.50;8.13;;;;;;;;;;5063529;28;20384;-78
2021/03/25 14:31:44;;;;;;;14.43;7.90;;;;;;;;;;5064934;28;20082;-78